This is the latest recevied weather packets stored in our database for station/object WV5G-13. If no packets are shown the sender has not sent any weather packets the latest 10 day(s).
| Time | Temp. | Humidity | Pressure | Rain* | Wind** | Luminosity | Snow |
|---|---|---|---|---|---|---|---|
| 1777745141 | 19.44° C | 23% | 1019.6 hPa | 0 mm | - | 945 W/m² | - |
| 1777744838 | 19.44° C | 24% | 1019.6 hPa | 0 mm | - | 942 W/m² | - |
| 1777744532 | 20.56° C | 23% | 1019.7 hPa | 0 mm | - | 938 W/m² | - |
| 1777744228 | 19.44° C | 26% | 1019.9 hPa | 0 mm | - | 936 W/m² | - |
| 1777743926 | 20° C | 23% | 1019.9 hPa | 0 mm | - | 942 W/m² | - |
| 1777743622 | 18.89° C | 24% | 1019.7 hPa | 0 mm | - | 936 W/m² | - |
| 1777743319 | 19.44° C | 23% | 1020.1 hPa | 0 mm | - | 928 W/m² | - |
| 1777743017 | 19.44° C | 25% | 1020.1 hPa | 0 mm | - | 918 W/m² | - |
| 1777742714 | 18.89° C | 29% | 1019.9 hPa | 0 mm | - | 917 W/m² | - |
| 1777742410 | 19.44° C | 31% | 1020 hPa | 0 mm | - | 912 W/m² | - |
| 1777742106 | 19.44° C | 32% | 1019.8 hPa | 0 mm | - | 903 W/m² | - |
| 1777741804 | 19.44° C | 31% | 1020 hPa | 0 mm | - | 895 W/m² | - |
| 1777741500 | 18.33° C | 36% | 1020.1 hPa | 0 mm | - | 888 W/m² | - |
| 1777741196 | 18.33° C | 37% | 1020.1 hPa | 0 mm | - | 881 W/m² | - |
| 1777740894 | 18.89° C | 35% | 1020.6 hPa | 0 mm | - | 873 W/m² | - |
| 1777740590 | 18.33° C | 36% | 1020.2 hPa | 0 mm | - | 863 W/m² | - |
| 1777740287 | 17.78° C | 40% | 1020.2 hPa | 0 mm | - | 853 W/m² | - |
| 1777739984 | 17.78° C | 41% | 1020.5 hPa | 0 mm | - | 842 W/m² | - |
| 1777739679 | 17.78° C | 39% | 1020.5 hPa | 0 mm | - | 826 W/m² | - |
| 1777739377 | 17.78° C | 40% | 1020.2 hPa | 0 mm | - | 815 W/m² | - |
| 1777739074 | 17.22° C | 41% | 1020.5 hPa | 0 mm | - | 803 W/m² | - |
| 1777738771 | 17.22° C | 43% | 1020.4 hPa | 0 mm | - | 793 W/m² | - |
| 1777738467 | 17.22° C | 42% | 1020.4 hPa | 0 mm | - | 783 W/m² | - |
| 1777738165 | 17.22° C | 43% | 1020.2 hPa | 0 mm | - | 773 W/m² | - |
| 1777737863 | 16.67° C | 45% | 1020.5 hPa | 0 mm | - | 762 W/m² | - |
* Rain latest hour (hover to see other rain measurements)
** Current wind speed in m/s (hover to see current wind gust speed)